Time;durP1;ratioP1;P1;durP2;ratioP2;P2;SDS_P1;SDS_P2;PMS_P1;PMS_P2;Temp;Humidity;BMP_temperature;BMP_pressure;BME280_temperature;BME280_humidity;BME280_pressure;Samples;Min_cycle;Max_cycle;Signal;HPM_P1;HPM_P2
2023/04/02 00:01:00;;;;;;;1.48;1.38;;;8.70;99.90;;;;;;4173328;28;20029;-73
2023/04/02 00:03:03;;;;;;;1.65;1.50;;;8.80;99.90;;;;;;4186521;28;20040;-73
2023/04/02 00:05:17;;;;;;;1.48;1.38;;;8.70;99.90;;;;;;4183505;28;20032;-73
2023/04/02 00:07:32;;;;;;;1.30;1.20;;;8.70;99.90;;;;;;4188350;28;20033;-73
2023/04/02 00:09:36;;;;;;;1.10;1.00;;;8.70;99.90;;;;;;4187746;28;20087;-73
2023/04/02 00:11:40;;;;;;;1.52;1.17;;;8.70;99.90;;;;;;4166734;28;20037;-72
2023/04/02 00:13:45;;;;;;;1.88;1.20;;;8.70;99.90;;;;;;4184518;28;20115;-73
2023/04/02 00:15:49;;;;;;;1.33;1.23;;;8.70;99.90;;;;;;4181386;28;20060;-72
2023/04/02 00:17:49;;;;;;;1.63;1.30;;;8.70;99.90;;;;;;4186288;28;20033;-70
2023/04/02 00:19:56;;;;;;;1.55;1.30;;;8.70;99.90;;;;;;4178314;28;20091;-72
2023/04/02 00:21:58;;;;;;;1.63;1.52;;;8.70;99.90;;;;;;4171389;28;20057;-73
2023/04/02 00:24:02;;;;;;;1.23;1.13;;;8.50;99.90;;;;;;4173832;28;20040;-73
2023/04/02 00:26:20;;;;;;;1.27;1.17;;;8.50;99.90;;;;;;4175799;28;20412;-73
2023/04/02 00:28:23;;;;;;;1.80;1.33;;;8.40;99.90;;;;;;4191614;28;20322;-72
2023/04/02 00:30:23;;;;;;;;;;;8.20;99.90;;;;;;4187414;28;20055;-73
2023/04/02 00:32:27;;;;;;;1.08;1.02;;;8.30;99.90;;;;;;4177359;28;19952;-72
2023/04/02 00:34:36;;;;;;;1.50;1.40;;;8.40;99.90;;;;;;4174950;28;20032;-73
2023/04/02 00:36:37;;;;;;;1.40;1.30;;;8.30;99.90;;;;;;4175643;28;20081;-72
2023/04/02 00:38:42;;;;;;;2.60;1.20;;;8.20;99.90;;;;;;4178291;28;20037;-72
2023/04/02 00:40:43;;;;;;;1.30;1.20;;;8.20;99.90;;;;;;4168656;28;20037;-72
2023/04/02 00:42:45;;;;;;;1.33;1.23;;;8.30;99.90;;;;;;4177300;28;20029;-73
2023/04/02 00:44:47;;;;;;;1.85;1.42;;;8.30;99.90;;;;;;4169714;28;20041;-72
2023/04/02 00:46:49;;;;;;;2.13;1.25;;;8.30;99.90;;;;;;4172844;28;20036;-72
2023/04/02 00:49:08;;;;;;;1.75;1.65;;;8.40;99.90;;;;;;4172829;28;20037;-70
2023/04/02 00:51:34;;;;;;;1.60;1.30;;;8.20;99.90;;;;;;4181158;28;20472;-72
2023/04/02 00:53:37;;;;;;;1.70;1.40;;;8.30;99.90;;;;;;4170802;28;20055;-72
2023/04/02 00:55:40;;;;;;;1.35;1.20;;;8.30;99.90;;;;;;4185511;28;20110;-72
2023/04/02 00:57:43;;;;;;;2.75;1.40;;;8.30;99.90;;;;;;4187775;28;20076;-73
2023/04/02 00:59:58;;;;;;;1.90;1.48;;;8.20;99.90;;;;;;4185175;28;20033;-73
2023/04/02 01:02:16;;;;;;;2.88;1.63;;;8.30;99.90;;;;;;4187929;28;20102;-73
2023/04/02 01:04:31;;;;;;;3.17;1.60;;;8.20;99.90;;;;;;4184858;28;20107;-72
2023/04/02 01:06:36;;;;;;;2.38;1.70;;;8.20;99.90;;;;;;4174487;28;20392;-73
2023/04/02 01:08:56;;;;;;;2.10;1.60;;;8.20;99.90;;;;;;4190161;28;20032;-72
2023/04/02 01:11:36;;;;;;;1.70;1.60;;;8.20;99.90;;;;;;4176962;28;20505;-73
2023/04/02 01:13:51;;;;;;;1.60;1.45;;;8.00;99.90;;;;;;4179128;28;20029;-73
2023/04/02 01:16:18;;;;;;;2.28;1.67;;;7.90;99.90;;;;;;4177705;28;20041;-72
2023/04/02 01:18:52;;;;;;;1.40;1.30;;;7.70;99.90;;;;;;4192790;28;20025;-73
2023/04/02 01:21:10;;;;;;;2.45;1.77;;;7.80;99.90;;;;;;4171090;28;20400;-72
2023/04/02 01:23:25;;;;;;;1.70;1.60;;;7.80;99.90;;;;;;4179327;28;20049;-72
2023/04/02 01:25:38;;;;;;;2.78;2.15;;;7.70;99.90;;;;;;4182460;28;20120;-72
2023/04/02 01:27:50;;;;;;;2.10;1.90;;;7.60;99.90;;;;;;4181759;28;20029;-72
2023/04/02 01:29:55;;;;;;;4.72;1.67;;;7.60;99.90;;;;;;4186987;28;20533;-71
2023/04/02 01:32:06;;;;;;;2.75;1.85;;;7.50;99.90;;;;;;4191475;28;20029;-72
2023/04/02 01:34:11;;;;;;;1.75;1.55;;;7.60;99.90;;;;;;4189027;28;20039;-69
2023/04/02 01:36:32;;;;;;;4.55;1.83;;;7.70;99.90;;;;;;4187624;28;20048;-72
2023/04/02 01:38:50;;;;;;;2.55;1.92;;;7.50;99.90;;;;;;4174493;28;20614;-72
2023/04/02 01:41:06;;;;;;;3.10;1.90;;;7.40;99.90;;;;;;4184756;28;20029;-71
2023/04/02 01:43:24;;;;;;;3.75;1.85;;;7.30;99.90;;;;;;4188819;28;20033;-73
2023/04/02 01:45:25;;;;;;;1.98;1.65;;;7.30;99.90;;;;;;4169529;28;20492;-72
2023/04/02 01:47:28;;;;;;;6.05;2.10;;;7.30;99.90;;;;;;4175940;28;20123;-72
2023/04/02 01:49:28;;;;;;;2.20;1.60;;;7.30;99.90;;;;;;4174060;28;20029;-72
2023/04/02 01:51:32;;;;;;;2.47;1.48;;;7.30;99.90;;;;;;4171831;28;20042;-72
2023/04/02 01:53:33;;;;;;;2.42;1.67;;;7.40;99.90;;;;;;4169120;28;20385;-72
2023/04/02 01:55:47;;;;;;;2.17;1.90;;;7.30;99.90;;;;;;4177494;28;20040;-73
2023/04/02 01:57:50;;;;;;;2.28;1.73;;;7.30;99.90;;;;;;4186973;28;20047;-72
2023/04/02 01:59:51;;;;;;;3.38;1.90;;;7.30;99.90;;;;;;4182587;28;20052;-71
2023/04/02 02:02:00;;;;;;;3.10;1.70;;;7.30;99.90;;;;;;4167511;28;20415;-72
2023/04/02 02:04:01;;;;;;;2.75;1.58;;;7.30;99.90;;;;;;4176289;28;20044;-73
2023/04/02 02:06:04;;;;;;;1.83;1.65;;;7.30;99.90;;;;;;4178214;28;20391;-72
2023/04/02 02:08:19;;;;;;;1.85;1.60;;;7.40;99.90;;;;;;4188525;28;20108;-72
2023/04/02 02:10:27;;;;;;;2.45;1.90;;;7.50;99.90;;;;;;4177542;28;20095;-72
2023/04/02 02:12:27;;;;;;;2.53;1.83;;;7.40;99.90;;;;;;4181683;28;20124;-73
2023/04/02 02:14:30;;;;;;;2.08;1.73;;;7.30;99.90;;;;;;4182086;28;20507;-72
2023/04/02 02:16:32;;;;;;;2.35;1.48;;;7.30;99.90;;;;;;4174563;28;20047;-73
2023/04/02 02:18:32;;;;;;;4.30;1.83;;;7.40;99.90;;;;;;4186341;28;20036;-73
2023/04/02 02:20:35;;;;;;;1.77;1.60;;;7.30;99.90;;;;;;4178456;28;20048;-72
2023/04/02 02:22:38;;;;;;;4.13;2.30;;;7.50;99.90;;;;;;4185290;28;20037;-73
2023/04/02 02:24:40;;;;;;;2.65;1.90;;;7.30;99.90;;;;;;4188069;28;20082;-72
2023/04/02 02:26:41;;;;;;;2.13;1.80;;;7.40;99.90;;;;;;4184820;28;20039;-72
2023/04/02 02:28:45;;;;;;;2.42;1.52;;;7.50;99.90;;;;;;4186916;28;20049;-72
2023/04/02 02:31:00;;;;;;;2.72;1.60;;;7.40;99.90;;;;;;4176769;28;20522;-72
2023/04/02 02:33:13;;;;;;;2.10;1.60;;;7.40;99.90;;;;;;4178274;28;20082;-72
2023/04/02 02:35:42;;;;;;;2.10;1.60;;;7.30;99.90;;;;;;4187077;28;20032;-72
2023/04/02 02:37:46;;;;;;;2.38;1.80;;;7.40;99.90;;;;;;4177058;28;20076;-72
2023/04/02 02:39:53;;;;;;;2.50;1.48;;;7.00;99.90;;;;;;4179039;28;20090;-72
2023/04/02 02:42:01;;;;;;;1.95;1.75;;;7.20;99.90;;;;;;4163436;28;20517;-72
2023/04/02 02:44:08;;;;;;;3.03;1.70;;;7.30;99.90;;;;;;4183974;28;20527;-73
2023/04/02 02:46:15;;;;;;;2.22;1.65;;;7.30;99.90;;;;;;4170212;28;20083;-73
2023/04/02 02:48:20;;;;;;;2.85;1.70;;;7.40;99.90;;;;;;4166834;28;20441;-72
2023/04/02 02:50:24;;;;;;;1.80;1.70;;;7.50;99.90;;;;;;4172714;28;20068;-72
2023/04/02 02:52:29;;;;;;;5.25;1.92;;;7.30;99.90;;;;;;4167513;28;20124;-72
2023/04/02 02:54:31;;;;;;;1.85;1.60;;;7.50;99.90;;;;;;4171602;28;20043;-72
2023/04/02 02:56:38;;;;;;;2.30;1.57;;;7.40;99.90;;;;;;4174159;28;20028;-73
2023/04/02 02:58:38;;;;;;;2.55;1.63;;;7.20;99.90;;;;;;4168817;28;20357;-72
2023/04/02 03:00:39;;;;;;;2.42;1.83;;;7.30;99.90;;;;;;4161785;28;20037;-72
2023/04/02 03:02:41;;;;;;;2.13;1.92;;;7.30;99.90;;;;;;4171034;28;20061;-72
2023/04/02 03:04:50;;;;;;;1.88;1.60;;;7.20;99.90;;;;;;4168655;28;20043;-72
2023/04/02 03:06:56;;;;;;;4.20;1.70;;;7.20;99.90;;;;;;4179186;28;20079;-72
2023/04/02 03:09:09;;;;;;;2.50;1.50;;;7.20;99.90;;;;;;4165696;28;20443;-72
2023/04/02 03:11:32;;;;;;;2.80;2.05;;;7.10;99.90;;;;;;4168527;28;20033;-71
2023/04/02 03:13:37;;;;;;;1.55;1.45;;;7.20;99.90;;;;;;4169522;28;20029;-72
2023/04/02 03:15:56;;;;;;;1.92;1.73;;;7.20;99.90;;;;;;4165125;28;20463;-72
2023/04/02 03:18:16;;;;;;;4.57;1.90;;;7.20;99.90;;;;;;4167132;28;20040;-72
2023/04/02 03:20:44;;;;;;;2.00;1.65;;;7.10;99.90;;;;;;4163271;28;20028;-73
2023/04/02 03:22:59;;;;;;;3.17;1.77;;;7.00;99.90;;;;;;4171987;28;20041;-72
2023/04/02 03:25:17;;;;;;;1.95;1.75;;;6.90;99.90;;;;;;4180308;28;20047;-72
2023/04/02 03:27:25;;;;;;;2.67;2.10;;;6.80;99.90;;;;;;4167303;28;20112;-72
2023/04/02 03:29:30;;;;;;;2.22;1.85;;;6.90;99.90;;;;;;4164544;28;20033;-72
2023/04/02 03:31:36;;;;;;;2.03;1.80;;;6.90;99.90;;;;;;4162646;28;20464;-72
2023/04/02 03:33:42;;;;;;;2.90;2.08;;;6.90;99.90;;;;;;4167253;28;20385;-72
2023/04/02 03:35:55;;;;;;;3.40;2.20;;;6.90;99.90;;;;;;4164383;28;20420;-72
2023/04/02 03:38:19;;;;;;;2.92;1.77;;;6.80;99.90;;;;;;4172610;28;20068;-73
2023/04/02 03:40:28;;;;;;;2.42;1.55;;;6.90;99.90;;;;;;4185553;28;20041;-72
2023/04/02 03:42:40;;;;;;;3.50;2.35;;;7.10;99.90;;;;;;4185172;28;20036;-72
2023/04/02 03:44:51;;;;;;;3.80;2.60;;;7.10;99.90;;;;;;4170103;28;20025;-72
2023/04/02 03:47:13;;;;;;;2.60;2.13;;;7.00;99.90;;;;;;4170657;28;20029;-72
2023/04/02 03:49:46;;;;;;;3.60;2.80;;;7.00;99.90;;;;;;4163437;28;20449;-72
2023/04/02 03:52:04;;;;;;;3.87;2.27;;;6.90;99.90;;;;;;4169840;28;20322;-72
2023/04/02 03:54:12;;;;;;;4.03;2.80;;;6.90;99.90;;;;;;4182381;28;20025;-72
2023/04/02 03:56:27;;;;;;;3.28;2.40;;;6.80;99.90;;;;;;4180887;28;22240;-71
2023/04/02 03:58:38;;;;;;;3.00;2.33;;;6.90;99.90;;;;;;4187513;28;20120;-72
2023/04/02 04:00:58;;;;;;;4.13;2.33;;;7.00;99.90;;;;;;4175879;28;20060;-71
2023/04/02 04:03:09;;;;;;;4.10;2.88;;;7.10;99.90;;;;;;4179678;28;20055;-71
2023/04/02 04:05:29;;;;;;;5.45;3.20;;;7.10;99.90;;;;;;4181089;28;20039;-72
2023/04/02 04:07:34;;;;;;;6.47;3.10;;;7.20;99.90;;;;;;4182282;28;20037;-72
2023/04/02 04:09:38;;;;;;;8.23;3.70;;;7.10;99.90;;;;;;4175824;28;20022;-72
2023/04/02 04:11:45;;;;;;;4.63;3.25;;;7.10;99.90;;;;;;4182258;28;20119;-71
2023/04/02 04:13:52;;;;;;;5.53;3.47;;;7.20;99.90;;;;;;4186937;28;20047;-72
2023/04/02 04:16:06;;;;;;;5.43;3.60;;;7.30;99.90;;;;;;4185677;28;20065;-73
2023/04/02 04:18:22;;;;;;;4.93;3.38;;;7.30;99.90;;;;;;4178755;28;20044;-72
2023/04/02 04:20:28;;;;;;;4.75;3.47;;;7.20;99.90;;;;;;4170336;28;20037;-69
2023/04/02 04:22:29;;;;;;;3.55;3.00;;;7.30;99.90;;;;;;4169607;28;20056;-72
2023/04/02 04:24:31;;;;;;;4.82;3.60;;;7.30;99.90;;;;;;4171267;28;20033;-72
2023/04/02 04:26:53;;;;;;;4.97;2.90;;;7.40;99.90;;;;;;4167972;28;20066;-73
2023/04/02 04:29:24;;;;;;;7.82;3.80;;;7.40;99.90;;;;;;4175722;28;20113;-71
2023/04/02 04:31:32;;;;;;;4.07;3.03;;;7.30;99.90;;;;;;4185796;28;20033;-71
2023/04/02 04:33:41;;;;;;;5.85;3.42;;;7.30;99.90;;;;;;4188586;28;20036;-72
2023/04/02 04:35:48;;;;;;;5.22;3.15;;;7.30;99.90;;;;;;4186014;28;20064;-71
2023/04/02 04:37:58;;;;;;;5.32;3.30;;;7.30;99.90;;;;;;4184183;28;20121;-72
2023/04/02 04:40:06;;;;;;;6.38;3.92;;;7.30;99.90;;;;;;4193059;28;20090;-72
2023/04/02 04:42:16;;;;;;;5.53;3.58;;;7.30;99.90;;;;;;4190064;28;20376;-72
2023/04/02 04:44:22;;;;;;;7.63;3.75;;;7.30;99.90;;;;;;4196384;28;20494;-72
2023/04/02 04:46:30;;;;;;;7.93;4.07;;;7.20;99.90;;;;;;4195195;28;20029;-72
2023/04/02 04:48:52;;;;;;;7.88;4.13;;;7.10;99.90;;;;;;4201067;28;20032;-72
2023/04/02 04:50:56;;;;;;;7.38;4.05;;;7.10;99.90;;;;;;4193784;28;20127;-72
2023/04/02 04:53:05;;;;;;;7.20;4.32;;;7.10;99.90;;;;;;4197772;28;20083;-71
2023/04/02 04:55:41;;;;;;;6.07;3.78;;;7.10;99.90;;;;;;4192250;28;20034;-71
2023/04/02 04:57:42;;;;;;;5.25;3.60;;;7.20;99.90;;;;;;4142811;28;20048;-71
2023/04/02 04:59:50;;;;;;;7.25;4.35;;;7.10;99.90;;;;;;4188440;28;20040;-71
2023/04/02 05:02:00;;;;;;;7.57;4.55;;;6.90;99.90;;;;;;4186780;28;20111;-72
2023/04/02 05:04:05;;;;;;;5.43;3.67;;;6.90;99.90;;;;;;4190825;28;20078;-72
2023/04/02 05:06:11;;;;;;;10.35;4.32;;;6.80;99.90;;;;;;4175733;28;20168;-71
2023/04/02 05:08:35;;;;;;;9.73;4.60;;;6.80;99.90;;;;;;4173304;28;20120;-71
2023/04/02 05:10:50;;;;;;;6.35;3.83;;;6.70;99.90;;;;;;4181478;28;20056;-72
2023/04/02 05:13:02;;;;;;;9.75;4.53;;;6.80;99.90;;;;;;4183457;28;20472;-72
2023/04/02 05:15:27;;;;;;;8.57;4.13;;;6.60;99.90;;;;;;4180388;28;20064;-73
2023/04/02 05:17:32;;;;;;;8.48;4.30;;;6.60;99.90;;;;;;4188727;28;20507;-72
2023/04/02 05:19:40;;;;;;;6.70;4.00;;;6.50;99.90;;;;;;4196319;28;20047;-72
2023/04/02 05:21:49;;;;;;;7.43;4.03;;;6.60;99.90;;;;;;4190923;28;20037;-71
2023/04/02 05:24:37;;;;;;;7.82;4.45;;;6.30;99.90;;;;;;4192913;28;20035;-72
2023/04/02 05:26:42;;;;;;;7.20;4.20;;;6.30;99.90;;;;;;4175103;28;20562;-71
2023/04/02 05:29:01;;;;;;;7.88;4.85;;;6.50;99.90;;;;;;4168818;28;20072;-72
2023/04/02 05:31:07;;;;;;;5.93;4.10;;;6.50;99.90;;;;;;4149844;28;20037;-71
2023/04/02 05:33:35;;;;;;;8.85;4.25;;;6.40;99.90;;;;;;4170980;28;20033;-72
2023/04/02 05:35:40;;;;;;;5.80;3.80;;;6.30;99.90;;;;;;4172498;28;20115;-71
2023/04/02 05:37:41;;;;;;;7.75;4.85;;;6.30;99.90;;;;;;4184287;28;20052;-71
2023/04/02 05:39:44;;;;;;;9.85;4.32;;;6.30;99.90;;;;;;4173423;28;20112;-71
2023/04/02 05:41:46;;;;;;;7.28;5.00;;;6.50;99.90;;;;;;4167240;28;20124;-71
2023/04/02 05:43:49;;;;;;;9.00;5.28;;;6.50;99.90;;;;;;4173617;28;20032;-71
2023/04/02 05:45:58;;;;;;;10.10;5.15;;;6.40;99.90;;;;;;4169186;28;20074;-71
2023/04/02 05:48:04;;;;;;;7.75;4.10;;;6.40;99.90;;;;;;4166611;28;20385;-71
2023/04/02 05:50:08;;;;;;;8.35;4.32;;;6.50;99.90;;;;;;4173622;28;20071;-71
2023/04/02 05:52:22;;;;;;;14.10;4.65;;;6.50;99.90;;;;;;4179142;28;20095;-71
2023/04/02 05:54:45;;;;;;;10.82;4.78;;;6.40;99.90;;;;;;4189924;28;20115;-71
2023/04/02 05:56:49;;;;;;;7.70;4.53;;;6.40;99.90;;;;;;4178510;28;20032;-71
2023/04/02 05:58:56;;;;;;;9.43;4.70;;;6.30;99.90;;;;;;4177516;28;20528;-71
2023/04/02 06:01:28;;;;;;;9.48;4.55;;;6.10;99.90;;;;;;4176874;28;20502;-71
2023/04/02 06:03:43;;;;;;;10.63;4.68;;;6.00;99.90;;;;;;4165781;28;20480;-71
2023/04/02 06:05:45;;;;;;;7.05;3.85;;;6.10;99.90;;;;;;4178795;28;20421;-71
2023/04/02 06:08:01;;;;;;;10.38;4.15;;;6.20;99.90;;;;;;4170008;28;20404;-71
2023/04/02 06:10:10;;;;;;;9.13;4.40;;;6.20;99.90;;;;;;4176360;28;20022;-71
2023/04/02 06:12:17;;;;;;;6.93;3.88;;;6.20;99.90;;;;;;4174895;28;20080;-70
2023/04/02 06:14:18;;;;;;;9.45;4.32;;;6.20;99.90;;;;;;4185002;28;20021;-70
2023/04/02 06:16:26;;;;;;;9.43;4.55;;;6.30;99.90;;;;;;4180496;28;20032;-70
2023/04/02 06:18:34;;;;;;;8.23;4.35;;;6.30;99.90;;;;;;4164763;28;20125;-71
2023/04/02 06:20:35;;;;;;;12.85;5.25;;;6.20;99.90;;;;;;4166824;28;20535;-70
2023/04/02 06:22:38;;;;;;;11.93;4.70;;;6.00;99.90;;;;;;4167349;28;20120;-71
2023/04/02 06:24:39;;;;;;;13.23;4.75;;;6.00;99.90;;;;;;4166956;28;20164;-70
2023/04/02 06:26:43;;;;;;;10.90;5.10;;;6.10;99.90;;;;;;4169572;28;20039;-71
2023/04/02 06:28:52;;;;;;;12.20;5.05;;;6.10;99.90;;;;;;4170541;28;20042;-69
2023/04/02 06:30:59;;;;;;;10.23;4.47;;;6.00;99.90;;;;;;4165314;28;20120;-71
2023/04/02 06:33:00;;;;;;;8.55;4.45;;;6.00;99.90;;;;;;4170482;28;22604;-71
2023/04/02 06:35:01;;;;;;;11.43;4.30;;;6.00;99.90;;;;;;4161305;28;20044;-70
2023/04/02 06:37:17;;;;;;;5.90;3.67;;;6.00;99.90;;;;;;4170267;28;20507;-71
2023/04/02 06:39:21;;;;;;;7.72;3.92;;;6.10;99.90;;;;;;4184798;28;20158;-71
2023/04/02 06:41:23;;;;;;;9.82;3.83;;;6.10;99.90;;;;;;4178848;28;20047;-70
2023/04/02 06:43:39;;;;;;;13.10;4.50;;;6.20;99.90;;;;;;4175845;28;20102;-71
2023/04/02 06:45:44;;;;;;;8.88;4.25;;;6.00;99.90;;;;;;4175681;28;20033;-70
2023/04/02 06:47:48;;;;;;;7.18;3.70;;;6.00;99.90;;;;;;4176290;28;20037;-70
2023/04/02 06:49:52;;;;;;;10.60;3.67;;;5.90;99.90;;;;;;4176643;28;20041;-70
2023/04/02 06:51:55;;;;;;;11.18;4.13;;;6.00;99.90;;;;;;4181266;28;20051;-69
2023/04/02 06:53:56;;;;;;;9.57;4.05;;;6.10;99.90;;;;;;4171855;28;20033;-69
2023/04/02 06:56:11;;;;;;;9.27;3.88;;;5.90;99.90;;;;;;4170093;28;20496;-69
2023/04/02 06:58:14;;;;;;;7.95;3.72;;;5.90;99.90;;;;;;4172241;28;20032;-68
2023/04/02 07:00:40;;;;;;;6.82;3.38;;;5.80;99.90;;;;;;4169261;28;20033;-68
2023/04/02 07:02:41;;;;;;;7.32;3.47;;;5.80;99.90;;;;;;4168762;28;20036;-69
2023/04/02 07:04:41;;;;;;;5.40;3.58;;;5.90;99.90;;;;;;4167704;28;20037;-69
2023/04/02 07:06:42;;;;;;;8.68;4.00;;;6.00;99.90;;;;;;4170439;28;20440;-69
2023/04/02 07:08:43;;;;;;;6.28;3.47;;;5.80;99.90;;;;;;4168461;28;20037;-68
2023/04/02 07:10:44;;;;;;;9.30;3.70;;;5.70;99.90;;;;;;4168391;28;20084;-69
2023/04/02 07:12:45;;;;;;;8.68;3.50;;;5.50;99.90;;;;;;4167151;28;20562;-69
2023/04/02 07:14:46;;;;;;;10.27;4.00;;;5.70;99.90;;;;;;4171036;28;20036;-69
2023/04/02 07:16:47;;;;;;;6.32;3.40;;;5.80;99.90;;;;;;4166181;28;20075;-69
2023/04/02 07:18:48;;;;;;;12.00;3.90;;;5.80;99.90;;;;;;4167274;28;20384;-69
2023/04/02 07:20:48;;;;;;;5.90;3.38;;;5.70;99.90;;;;;;4168060;28;20159;-69
2023/04/02 07:22:49;;;;;;;10.90;3.45;;;5.70;99.90;;;;;;4168070;28;20040;-69
2023/04/02 07:24:50;;;;;;;6.82;3.50;;;5.80;99.90;;;;;;4166072;28;20025;-69
2023/04/02 07:26:50;;;;;;;9.13;3.00;;;5.90;99.90;;;;;;4162801;28;20051;-69
2023/04/02 07:28:51;;;;;;;5.50;3.25;;;6.00;99.90;;;;;;4166231;28;20029;-69
2023/04/02 07:30:52;;;;;;;8.38;3.67;;;5.90;99.90;;;;;;4164407;28;20029;-69
2023/04/02 07:32:53;;;;;;;7.60;3.17;;;5.90;99.90;;;;;;4167805;28;20504;-69
2023/04/02 07:34:53;;;;;;;8.73;3.40;;;5.90;99.90;;;;;;4168502;28;20060;-69
2023/04/02 07:36:54;;;;;;;11.07;3.42;;;6.00;99.90;;;;;;4164306;28;20063;-69
2023/04/02 07:38:54;;;;;;;4.28;2.67;;;5.90;99.90;;;;;;4149862;28;20029;-69
2023/04/02 07:40:55;;;;;;;8.18;3.42;;;5.80;99.90;;;;;;4172494;28;20041;-68
2023/04/02 07:42:56;;;;;;;7.40;2.85;;;5.80;99.90;;;;;;4175451;28;20068;-68
2023/04/02 07:44:56;;;;;;;7.35;2.65;;;5.70;99.90;;;;;;4169133;28;20049;-67
2023/04/02 07:46:57;;;;;;;6.93;3.03;;;5.80;99.90;;;;;;4168115;28;20037;-69
2023/04/02 07:48:57;;;;;;;9.02;3.38;;;5.80;99.90;;;;;;4168404;28;20087;-69
2023/04/02 07:50:59;;;;;;;8.27;2.90;;;5.90;99.90;;;;;;4164072;28;20041;-68
2023/04/02 07:53:00;;;;;;;8.03;3.33;;;6.00;99.90;;;;;;4178286;28;20036;-68
2023/04/02 07:55:00;;;;;;;7.55;3.03;;;5.80;99.90;;;;;;4172325;28;20334;-68
2023/04/02 07:57:01;;;;;;;8.40;2.70;;;5.80;99.90;;;;;;4186160;28;20094;-68
2023/04/02 07:59:03;;;;;;;7.75;2.75;;;5.80;99.90;;;;;;4181948;28;20445;-69
2023/04/02 08:01:04;;;;;;;5.75;2.90;;;5.70;99.90;;;;;;4177514;28;20471;-69
2023/04/02 08:03:04;;;;;;;6.20;3.28;;;5.70;99.90;;;;;;4183081;28;20029;-69
2023/04/02 08:05:06;;;;;;;8.55;2.75;;;5.70;99.90;;;;;;4173251;28;20033;-70
2023/04/02 08:07:07;;;;;;;4.00;2.77;;;5.70;99.90;;;;;;4172158;28;21077;-69
2023/04/02 08:09:07;;;;;;;6.53;2.78;;;5.70;99.90;;;;;;4175600;28;20041;-69
2023/04/02 08:11:08;;;;;;;6.13;2.45;;;5.80;99.90;;;;;;4175391;28;20067;-69
2023/04/02 08:13:09;;;;;;;3.45;2.20;;;5.80;99.90;;;;;;4178758;28;20072;-69
2023/04/02 08:15:14;;;;;;;5.75;2.22;;;5.80;99.90;;;;;;4179087;28;20366;-69
2023/04/02 08:17:15;;;;;;;5.35;2.72;;;5.70;99.90;;;;;;4178284;28;20119;-68
2023/04/02 08:19:16;;;;;;;11.02;2.80;;;5.60;99.90;;;;;;4173538;28;20373;-69
2023/04/02 08:21:17;;;;;;;5.45;2.47;;;5.60;99.90;;;;;;4172640;28;20037;-68
2023/04/02 08:23:18;;;;;;;5.50;2.83;;;5.50;99.90;;;;;;4174159;28;20045;-69
2023/04/02 08:25:18;;;;;;;4.00;2.22;;;5.50;99.90;;;;;;4179742;28;20025;-68
2023/04/02 08:27:19;;;;;;;6.75;2.55;;;5.60;99.90;;;;;;4178017;28;20439;-68
2023/04/02 08:29:20;;;;;;;6.07;2.72;;;5.60;99.90;;;;;;4190599;28;20116;-68
2023/04/02 08:31:22;;;;;;;6.05;2.30;;;5.60;99.90;;;;;;4186028;28;20111;-68
2023/04/02 08:33:23;;;;;;;5.47;2.35;;;5.60;99.90;;;;;;4186282;28;20086;-69
2023/04/02 08:35:23;;;;;;;8.63;2.40;;;5.60;99.90;;;;;;4184305;28;20032;-69
2023/04/02 08:37:24;;;;;;;7.35;2.25;;;5.50;99.90;;;;;;4180054;28;20040;-69
2023/04/02 08:39:28;;;;;;;5.75;2.40;;;5.50;99.90;;;;;;4178529;28;20028;-68
2023/04/02 08:41:34;;;;;;;6.93;2.17;;;5.40;99.90;;;;;;4173847;28;20451;-68
2023/04/02 08:43:39;;;;;;;8.32;2.40;;;5.20;99.90;;;;;;4173309;28;20036;-68
2023/04/02 08:46:00;;;;;;;5.20;2.15;;;5.30;99.90;;;;;;4179855;28;20064;-69
2023/04/02 08:48:02;;;;;;;4.43;1.98;;;5.30;99.90;;;;;;4177386;28;20386;-68
2023/04/02 08:50:16;;;;;;;6.45;2.42;;;5.10;99.90;;;;;;4177503;28;20116;-69
2023/04/02 08:52:27;;;;;;;6.07;2.13;;;5.10;99.90;;;;;;4182413;28;20025;-68
2023/04/02 08:54:31;;;;;;;7.30;2.38;;;5.20;99.90;;;;;;4187957;28;20082;-69
2023/04/02 08:56:35;;;;;;;5.70;2.53;;;5.20;99.90;;;;;;4172190;28;20088;-69
2023/04/02 08:58:41;;;;;;;8.15;2.58;;;5.30;99.90;;;;;;4184245;28;20112;-69
2023/04/02 09:00:44;;;;;;;5.03;2.40;;;5.40;99.90;;;;;;4155017;28;20036;-69
2023/04/02 09:02:48;;;;;;;;;;;5.50;99.90;;;;;;4175083;28;20171;-69
2023/04/02 09:04:49;;;;;;;7.72;3.03;;;5.60;99.90;;;;;;4182290;28;19958;-69
2023/04/02 09:06:53;;;;;;;7.03;2.28;;;5.60;99.90;;;;;;4196867;28;20025;-68
2023/04/02 09:08:55;;;;;;;8.45;2.70;;;5.80;99.90;;;;;;4190403;28;20032;-69
2023/04/02 09:11:03;;;;;;;5.97;2.30;;;5.60;99.90;;;;;;4180541;28;20025;-69
2023/04/02 09:13:14;;;;;;;4.60;2.35;;;5.70;99.90;;;;;;4175994;28;20045;-69
2023/04/02 09:15:33;;;;;;;3.88;1.88;;;5.90;99.90;;;;;;4178760;28;20046;-69
2023/04/02 09:17:33;;;;;;;3.97;1.90;;;6.00;99.90;;;;;;4185236;28;20032;-69
2023/04/02 09:19:43;;;;;;;6.43;2.22;;;6.10;99.90;;;;;;4171817;28;20029;-69
2023/04/02 09:22:18;;;;;;;6.18;2.33;;;6.00;99.90;;;;;;4176363;28;20396;-69
2023/04/02 09:24:19;;;;;;;6.28;2.45;;;5.90;99.90;;;;;;4154086;28;20038;-70
2023/04/02 09:26:23;;;;;;;4.78;2.47;;;5.90;99.90;;;;;;4169514;28;20067;-69
2023/04/02 09:28:25;;;;;;;7.90;2.47;;;6.00;99.90;;;;;;4171318;28;20021;-69
2023/04/02 09:30:52;;;;;;;2.47;1.73;;;6.00;99.90;;;;;;4174278;28;20077;-69
2023/04/02 09:33:01;;;;;;;4.53;1.80;;;6.10;99.90;;;;;;4179480;28;20029;-69
2023/04/02 09:35:22;;;;;;;4.95;1.95;;;5.90;99.90;;;;;;4182859;28;20032;-70
2023/04/02 09:37:24;;;;;;;7.93;2.22;;;5.80;99.90;;;;;;4179169;28;20044;-69
2023/04/02 09:39:25;;;;;;;7.33;2.20;;;5.70;99.90;;;;;;4192827;28;20087;-69
2023/04/02 09:41:28;;;;;;;5.57;2.03;;;5.80;99.90;;;;;;4188113;28;20316;-69
2023/04/02 09:43:31;;;;;;;6.07;1.92;;;5.70;99.90;;;;;;4187169;28;20063;-67
2023/04/02 09:45:31;;;;;;;5.60;2.05;;;5.70;99.90;;;;;;4186828;28;20166;-69
2023/04/02 09:47:32;;;;;;;6.18;2.03;;;5.60;99.90;;;;;;4187718;28;20423;-69
2023/04/02 09:49:36;;;;;;;7.63;2.40;;;5.50;99.90;;;;;;4188104;28;20491;-69
2023/04/02 09:51:37;;;;;;;7.07;1.92;;;5.70;99.90;;;;;;4184361;28;20092;-69
2023/04/02 09:53:47;;;;;;;4.35;2.08;;;5.80;99.90;;;;;;4185602;28;20067;-69
2023/04/02 09:55:48;;;;;;;5.20;2.17;;;5.90;99.90;;;;;;4182417;28;20389;-69
2023/04/02 09:57:50;;;;;;;5.88;2.08;;;5.90;99.90;;;;;;4183607;28;20036;-69
2023/04/02 10:00:10;;;;;;;6.13;2.20;;;5.80;99.90;;;;;;4184793;28;20062;-69
2023/04/02 10:02:28;;;;;;;4.18;1.80;;;5.80;99.90;;;;;;4184166;28;20056;-69
2023/04/02 10:04:31;;;;;;;3.35;1.73;;;5.90;99.90;;;;;;4184476;28;20029;-71
2023/04/02 10:06:33;;;;;;;3.15;1.30;;;6.10;99.90;;;;;;4180830;28;20033;-69
2023/04/02 10:08:35;;;;;;;5.03;2.10;;;6.10;99.90;;;;;;4186282;28;20503;-69
2023/04/02 10:10:41;;;;;;;4.35;1.63;;;6.10;99.90;;;;;;4183619;28;20033;-69
2023/04/02 10:12:47;;;;;;;4.45;1.88;;;6.40;99.90;;;;;;4187404;28;20060;-69
2023/04/02 10:14:49;;;;;;;5.22;1.83;;;6.40;99.90;;;;;;4184285;28;20063;-69
2023/04/02 10:16:56;;;;;;;4.55;1.83;;;6.40;99.90;;;;;;4179814;28;20047;-69
2023/04/02 10:19:08;;;;;;;3.58;1.60;;;6.50;99.90;;;;;;4184281;28;20043;-69
2023/04/02 10:21:14;;;;;;;4.15;1.77;;;6.60;99.90;;;;;;4180963;28;20123;-69
2023/04/02 10:23:16;;;;;;;3.60;1.80;;;6.40;99.90;;;;;;4183243;28;20043;-69
2023/04/02 10:25:22;;;;;;;5.43;2.00;;;6.40;99.90;;;;;;4166480;28;20423;-68
2023/04/02 10:27:36;;;;;;;4.47;1.65;;;6.50;99.90;;;;;;4178500;28;20032;-69
2023/04/02 10:30:01;;;;;;;7.30;2.47;;;6.50;99.90;;;;;;4182960;28;20043;-69
2023/04/02 10:32:44;;;;;;;5.22;2.20;;;6.40;99.90;;;;;;4182669;28;20036;-68
2023/04/02 10:35:00;;;;;;;4.10;1.98;;;6.20;99.90;;;;;;4116429;28;20038;-69
2023/04/02 10:37:27;;;;;;;5.32;2.00;;;6.00;99.90;;;;;;4127272;28;20490;-69
2023/04/02 10:39:43;;;;;;;4.15;1.80;;;5.90;99.90;;;;;;4160364;28;20059;-69
2023/04/02 10:42:00;;;;;;;6.20;2.05;;;5.90;99.90;;;;;;4204536;28;20040;-69
2023/04/02 10:44:08;;;;;;;5.38;2.10;;;5.90;99.90;;;;;;4203034;28;20020;-69
2023/04/02 10:46:20;;;;;;;4.50;1.90;;;5.90;99.90;;;;;;4205027;28;20468;-69
2023/04/02 10:48:31;;;;;;;5.25;1.92;;;5.90;99.90;;;;;;4200735;28;20035;-69
2023/04/02 10:51:02;;;;;;;5.07;1.95;;;5.90;99.90;;;;;;4202560;28;20048;-69
2023/04/02 10:53:08;;;;;;;3.88;1.95;;;5.90;99.90;;;;;;4181086;28;20023;-69
2023/04/02 10:55:22;;;;;;;6.20;2.35;;;5.90;99.90;;;;;;4178698;28;20546;-69
2023/04/02 10:57:42;;;;;;;4.50;1.85;;;5.90;99.90;;;;;;4162282;28;20030;-69
2023/04/02 10:59:52;;;;;;;6.90;2.28;;;6.00;99.90;;;;;;4158982;28;20029;-69
2023/04/02 11:01:56;;;;;;;3.53;1.70;;;5.90;99.90;;;;;;4161690;28;20351;-69
2023/04/02 11:04:06;;;;;;;5.90;2.22;;;5.90;99.90;;;;;;4162702;28;20032;-69
2023/04/02 11:06:22;;;;;;;5.72;1.90;;;6.00;99.90;;;;;;4164781;28;20033;-69
2023/04/02 11:08:28;;;;;;;7.80;2.22;;;6.00;99.90;;;;;;4178614;28;20549;-69
2023/04/02 11:10:35;;;;;;;3.65;1.90;;;6.20;99.90;;;;;;4177117;28;20369;-69
2023/04/02 11:12:45;;;;;;;5.72;1.30;;;6.20;99.90;;;;;;4179035;28;20029;-69
2023/04/02 11:14:46;;;;;;;2.80;1.45;;;6.50;99.90;;;;;;4179171;28;20036;-69
2023/04/02 11:16:48;;;;;;;5.78;1.67;;;6.60;99.90;;;;;;4178088;28;20109;-69